Archival Weather

Biggin Hill

Biggin Hill, United Kingdom (EGKB)

Report from: Sunday, September 25, 2022 2:50 PM BST
Current time: Saturday, March 2, 2024 10:46 AM GMT

Current weather – Weather history – Daily summaries
Weather forecast

Temperature14.0°C (57.2°F)
Dew point3.0°C (37.4°F)
Winds 4 kts (2.1 m/s, 4.6 mph) Vrb
Winds variableWinds variable from West (270°) to North-Northeast (20°)
Visibility6.2 mi. (10 km)
Clouds Few clouds 4,800 ft. (1,463 m)
Altimeter30.06 in.Hg (1018 mB)
Relative humidity47 %
Density altitude-165 ft. (-50 m)
Flight conditions Visual Meteorological Conditions
Raw dataEGKB 251350Z 32004KT 270V020 9999 FEW048 14/03 Q1018
An error has occurred. This application may no longer respond until reloaded. Reload 🗙